Swift Arrow — WAFK — position and weather

sailwx.info

Track history (hours):
 
Tides and Currents Weather Stations Pressure Air Temp Water Temp Dewpoint Dewpoint Depression Visibility Wind Speed Wind Dir Waves Ship Positions

Swift Arrow

Owner: ARROW LAUNCH SERVICE INC, Port Angeles, WA. More information available from US FCC via Universal Licensing System and Coast Guard Vessel Documentation Center.

Last reported at 2017-Mar-29 10:12 UTC. Time now 2017-Mar-29 13:34 UTC.
Position N 47°15' W 122°26'.

Type: Port tender. MMSI: 369021000.

Date/timePositionNaut miles runAvg speedWind from/ knotsBaromVisibWave heightAir tempDewpointWater temp
2017-Mar-29 10:12N 47°15' W 122°26'1 1.4
2017-Mar-29 09:29N 47°16' W 122°25'1 0.2
2017-Mar-29 02:33N 47°15' W 122°26'6 5.5
2017-Mar-29 01:33N 47°20' W 122°29'4 3.8
2017-Mar-29 00:33N 47°17' W 122°27'1 1.3
2017-Mar-28 23:33N 47°16' W 122°26'1 0.5
2017-Mar-28 21:05N 47°17' W 122°26'1 0.2
2017-Mar-28 16:33N 47°16' W 122°26'1 0.1
2017-Mar-28 01:28N 47°15' W 122°26'0 0.2
2017-Mar-28 00:33N 47°15' W 122°26'0 0.1
2017-Mar-27 21:21N 47°15' W 122°26'4 5.3
2017-Mar-27 20:33N 47°19' W 122°30'0 0.1
2017-Mar-27 19:33N 47°19' W 122°30'1 0.9
2017-Mar-27 18:33N 47°18' W 122°31'1 0.8
2017-Mar-27 17:33N 47°19' W 122°30'4 4.0
2017-Mar-27 16:30N 47°15' W 122°26'2 0.4
2017-Mar-27 11:33N 47°17' W 122°26'0 0.3
2017-Mar-27 10:33N 47°17' W 122°27'  
2017-Mar-23 18:19N 47°15' W 122°26'5 6.9
2017-Mar-23 17:33N 47°20' W 122°29'0 0.2
2017-Mar-23 16:33N 47°20' W 122°28'5 0.3
2017-Mar-23 00:33N 47°17' W 122°25'4 4.0
2017-Mar-22 23:33N 47°20' W 122°28'  
Track history (hours):
 
Tides and Currents Weather Stations Pressure Air Temp Water Temp Dewpoint Dewpoint Depression Visibility Wind Speed Wind Dir Waves Ship Positions

Swift Arrow

Owner: ARROW LAUNCH SERVICE INC, Port Angeles, WA. More information available from US FCC via Universal Licensing System and Coast Guard Vessel Documentation Center.

Last reported at 2017-Mar-29 10:12 UTC. Time now 2017-Mar-29 13:34 UTC.
Position N 47°15' W 122°26'.

Type: Port tender. MMSI: 369021000.

Date/timePositionNaut miles runAvg speedWind from/ knotsBaromVisibWave heightAir tempDewpointWater temp
2017-Mar-29 10:12N 47°15' W 122°26'1 1.4
2017-Mar-29 09:29N 47°16' W 122°25'1 0.2
2017-Mar-29 02:33N 47°15' W 122°26'6 5.5
2017-Mar-29 01:33N 47°20' W 122°29'4 3.8
2017-Mar-29 00:33N 47°17' W 122°27'1 1.3
2017-Mar-28 23:33N 47°16' W 122°26'1 0.5
2017-Mar-28 21:05N 47°17' W 122°26'1 0.2
2017-Mar-28 16:33N 47°16' W 122°26'1 0.1
2017-Mar-28 01:28N 47°15' W 122°26'0 0.2
2017-Mar-28 00:33N 47°15' W 122°26'0 0.1
2017-Mar-27 21:21N 47°15' W 122°26'4 5.3
2017-Mar-27 20:33N 47°19' W 122°30'0 0.1
2017-Mar-27 19:33N 47°19' W 122°30'1 0.9
2017-Mar-27 18:33N 47°18' W 122°31'1 0.8
2017-Mar-27 17:33N 47°19' W 122°30'4 4.0
2017-Mar-27 16:30N 47°15' W 122°26'2 0.4
2017-Mar-27 11:33N 47°17' W 122°26'0 0.3
2017-Mar-27 10:33N 47°17' W 122°27'  
2017-Mar-23 18:19N 47°15' W 122°26'5 6.9
2017-Mar-23 17:33N 47°20' W 122°29'0 0.2
2017-Mar-23 16:33N 47°20' W 122°28'5 0.3
2017-Mar-23 00:33N 47°17' W 122°25'4 4.0
2017-Mar-22 23:33N 47°20' W 122°28'  

Dump ship's entire track history